Time,TemperatureF,DewpointF,PressureIn,WindDirection,WindDirectionDegrees,WindSpeedMPH,WindSpeedGustMPH,Humidity,HourlyPrecipIn,Conditions,Clouds,dailyrainin,SoftwareType,DateUTC
2013-10-28 00:00:00,37.0,34.0,29.91,NW,310,3.0,-999.0,89,-99.99,,,-99.99,,2013-10-28 00:00:00,
2013-10-28 00:42:00,37.0,34.0,29.91,NW,310,3.0,-999.0,89,-99.99,,,-99.99,,2013-10-28 00:42:00,
2013-10-28 00:52:00,37.0,34.0,29.91,NW,310,3.0,-999.0,89,-99.99,,,-99.99,,2013-10-28 00:52:00,
2013-10-28 03:00:00,35.0,29.0,30.04,North,350,11.0,-999.0,77,-99.99,,,-99.99,,2013-10-28 03:00:00,
2013-10-28 03:44:00,35.0,29.0,30.04,North,350,11.0,-999.0,77,-99.99,,,-99.99,,2013-10-28 03:44:00,
2013-10-28 03:54:00,35.0,29.0,30.04,North,350,11.0,-999.0,77,-99.99,,,-99.99,,2013-10-28 03:54:00,
2013-10-28 06:00:00,30.0,21.0,30.21,North,360,15.0,-999.0,67,-99.99,,,-99.99,,2013-10-28 06:00:00,
2013-10-28 06:42:00,30.0,21.0,30.21,North,360,15.0,-999.0,67,-99.99,,,-99.99,,2013-10-28 06:42:00,
2013-10-28 06:52:00,30.0,21.0,30.21,North,360,15.0,-999.0,67,-99.99,,,-99.99,,2013-10-28 06:52:00,
2013-10-28 09:00:00,30.0,22.0,30.33,North,10,5.0,-999.0,72,-99.99,,,-99.99,,2013-10-28 09:00:00,
2013-10-28 09:43:00,30.0,22.0,30.33,North,10,5.0,-999.0,72,-99.99,,,-99.99,,2013-10-28 09:43:00,
2013-10-28 09:53:00,30.0,22.0,30.33,North,10,5.0,-999.0,72,-99.99,,,-99.99,,2013-10-28 09:53:00,
2013-10-28 12:00:00,28.0,19.0,30.42,North,10,5.0,-999.0,68,-99.99,,,-99.99,,2013-10-28 12:00:00,
2013-10-28 12:41:00,28.0,19.0,30.42,North,10,5.0,-999.0,68,-99.99,,,-99.99,,2013-10-28 12:41:00,
2013-10-28 12:52:00,28.0,19.0,30.42,North,10,5.0,-999.0,68,-99.99,,,-99.99,,2013-10-28 12:52:00,
2013-10-28 15:00:00,29.0,19.0,30.50,NNW,330,5.0,-999.0,67,-99.99,,,-99.99,,2013-10-28 15:00:00,
2013-10-28 15:43:00,29.0,19.0,30.50,NNW,330,5.0,-999.0,67,-99.99,,,-99.99,,2013-10-28 15:43:00,
2013-10-28 15:53:00,29.0,19.0,30.50,NNW,330,5.0,-999.0,67,-99.99,,,-99.99,,2013-10-28 15:53:00,
2013-10-28 18:00:00,32.0,21.0,30.52,WNW,290,2.0,-999.0,64,-99.99,,,-99.99,,2013-10-28 18:00:00,
2013-10-28 18:42:00,32.0,21.0,30.52,WNW,290,2.0,-999.0,64,-99.99,,,-99.99,,2013-10-28 18:42:00,
2013-10-28 18:52:00,32.0,21.0,30.52,WNW,290,2.0,-999.0,64,-99.99,,,-99.99,,2013-10-28 18:52:00,
2013-10-28 21:00:00,32.0,22.0,30.50,NW,310,8.0,-999.0,65,-99.99,,,-99.99,,2013-10-28 21:00:00,
2013-10-28 21:43:00,32.0,22.0,30.50,NW,310,8.0,-999.0,65,-99.99,,,-99.99,,2013-10-28 21:43:00,
2013-10-28 21:53:00,32.0,22.0,30.50,NW,310,8.0,-999.0,65,-99.99,,,-99.99,,2013-10-28 21:53:00,